createdAt,value
2019-01-04T00:00:15.008Z,467.69
2019-01-04T00:01:15.835Z,470.50
2019-01-04T00:02:15.059Z,469.54
2019-01-04T00:03:16.190Z,474.83
2019-01-04T00:04:14.968Z,473.33
2019-01-04T00:05:15.040Z,469.95
2019-01-04T00:06:14.947Z,471.34
2019-01-04T00:07:14.967Z,473.20
2019-01-04T00:08:14.932Z,472.98
2019-01-04T00:09:14.923Z,471.85
2019-01-04T00:10:15.117Z,469.88
2019-01-04T00:11:14.928Z,473.29
2019-01-04T00:12:14.887Z,473.37
2019-01-04T00:13:14.873Z,475.23
2019-01-04T00:14:14.875Z,469.63
2019-01-04T00:15:14.859Z,474.99
2019-01-04T00:16:14.848Z,476.04
2019-01-04T00:17:14.818Z,472.62
2019-01-04T00:18:15.068Z,473.31
2019-01-04T00:19:14.801Z,473.51
2019-01-04T00:20:14.823Z,473.00
2019-01-04T00:21:14.809Z,475.23
2019-01-04T00:22:14.774Z,471.45
2019-01-04T00:23:14.812Z,477.45
2019-01-04T00:24:14.760Z,476.86
2019-01-04T00:25:14.806Z,473.93
2019-01-04T00:26:14.770Z,470.05
2019-01-04T00:27:14.740Z,472.01
2019-01-04T00:28:14.733Z,474.25
2019-01-04T00:29:14.717Z,475.07
2019-01-04T00:30:14.682Z,472.69
2019-01-04T00:31:14.698Z,476.50
2019-01-04T00:32:14.688Z,473.07
2019-01-04T00:33:14.683Z,477.24
2019-01-04T00:34:14.668Z,469.49
2019-01-04T00:35:14.735Z,473.62
2019-01-04T00:36:14.635Z,472.22
2019-01-04T00:37:14.622Z,477.18
2019-01-04T00:38:14.624Z,475.66
2019-01-04T00:39:14.634Z,476.71
2019-01-04T00:40:14.588Z,473.77
2019-01-04T00:41:14.942Z,469.11
2019-01-04T00:42:14.570Z,475.81
2019-01-04T00:43:14.584Z,473.78
2019-01-04T00:44:14.559Z,472.44
2019-01-04T00:45:14.576Z,472.07
2019-01-04T00:46:14.539Z,471.88
2019-01-04T00:47:14.523Z,481.63
2019-01-04T00:48:14.534Z,471.28
2019-01-04T00:49:14.530Z,469.86
2019-01-04T00:50:14.532Z,474.37
2019-01-04T00:51:14.503Z,474.48
2019-01-04T00:52:14.496Z,474.87
2019-01-04T00:53:14.464Z,476.26
2019-01-04T00:54:14.455Z,475.77
2019-01-04T00:55:15.299Z,472.04
2019-01-04T00:56:14.457Z,474.24
2019-01-04T00:57:14.423Z,479.46
2019-01-04T00:58:14.422Z,472.94
2019-01-04T00:59:14.386Z,473.25
2019-01-04T01:00:14.403Z,472.20
2019-01-04T01:01:14.402Z,474.84
2019-01-04T01:02:14.366Z,472.11
2019-01-04T01:03:14.349Z,474.14
2019-01-04T01:04:14.347Z,471.98
2019-01-04T01:05:14.343Z,473.14
2019-01-04T01:06:14.347Z,470.44
2019-01-04T01:07:15.528Z,468.31
2019-01-04T01:08:14.316Z,468.79
2019-01-04T01:09:14.360Z,470.16
2019-01-04T01:10:14.273Z,469.20
2019-01-04T01:11:14.279Z,476.93
2019-01-04T01:12:14.267Z,475.13
2019-01-04T01:13:14.259Z,470.14
2019-01-04T01:14:14.246Z,472.93
2019-01-04T01:15:14.258Z,470.42
2019-01-04T01:16:14.214Z,473.49
2019-01-04T01:17:14.225Z,477.66
2019-01-04T01:18:14.197Z,472.29
2019-01-04T01:19:14.219Z,474.09
2019-01-04T01:20:14.163Z,474.08
2019-01-04T01:21:14.162Z,472.52
2019-01-04T01:22:14.177Z,473.95
2019-01-04T01:23:14.143Z,470.78
2019-01-04T01:24:14.176Z,474.66
2019-01-04T01:25:14.191Z,473.04
2019-01-04T01:26:14.124Z,471.89
2019-01-04T01:27:14.141Z,471.85
2019-01-04T01:28:14.096Z,473.78
2019-01-04T01:29:14.091Z,472.22
2019-01-04T01:30:14.107Z,476.03
2019-01-04T01:31:14.070Z,471.73
2019-01-04T01:32:14.086Z,473.92
2019-01-04T01:33:14.054Z,471.14
2019-01-04T01:34:14.042Z,470.88
2019-01-04T01:35:14.027Z,470.38
2019-01-04T01:36:14.029Z,472.05
2019-01-04T01:37:14.026Z,471.04
2019-01-04T01:38:14.029Z,472.17
2019-01-04T01:39:13.983Z,474.23
2019-01-04T01:40:14.009Z,471.77
2019-01-04T01:41:13.975Z,475.53
2019-01-04T01:42:13.958Z,473.05
2019-01-04T01:43:13.947Z,471.67
2019-01-04T01:44:13.954Z,469.81
2019-01-04T01:45:13.949Z,469.50
2019-01-04T01:46:13.929Z,469.97
2019-01-04T01:47:13.903Z,469.59
2019-01-04T01:48:13.902Z,473.11
2019-01-04T01:49:13.886Z,471.15
2019-01-04T01:50:13.937Z,472.74
2019-01-04T01:51:13.885Z,470.46
2019-01-04T01:52:13.858Z,471.69
2019-01-04T01:53:13.832Z,470.73
2019-01-04T01:54:13.851Z,471.57
2019-01-04T01:55:13.823Z,471.29
2019-01-04T01:56:13.827Z,468.97
2019-01-04T01:57:13.844Z,467.89
2019-01-04T01:58:13.788Z,470.55
2019-01-04T01:59:13.799Z,469.33
2019-01-04T02:00:13.766Z,465.48
2019-01-04T02:01:13.773Z,470.30
2019-01-04T02:02:13.794Z,467.04
2019-01-04T02:03:13.734Z,468.43
2019-01-04T02:04:13.712Z,469.27
2019-01-04T02:05:13.739Z,469.73
2019-01-04T02:06:13.723Z,469.60
2019-01-04T02:07:13.706Z,470.07
2019-01-04T02:08:13.683Z,468.37
2019-01-04T02:09:13.660Z,471.70
2019-01-04T02:10:13.670Z,475.05
2019-01-04T02:11:13.656Z,467.13
2019-01-04T02:12:13.677Z,467.80
2019-01-04T02:13:22.894Z,469.71
2019-01-04T02:14:13.629Z,471.25
2019-01-04T02:15:13.601Z,469.92
2019-01-04T02:16:13.602Z,471.33
2019-01-04T02:17:13.622Z,467.12
2019-01-04T02:18:13.572Z,467.76
2019-01-04T02:19:13.603Z,471.02
2019-01-04T02:20:13.585Z,467.48
2019-01-04T02:21:13.548Z,465.74
2019-01-04T02:22:13.571Z,466.61
2019-01-04T02:23:13.582Z,468.03
2019-01-04T02:24:13.533Z,468.45
2019-01-04T02:25:13.534Z,478.10
2019-01-04T02:26:13.520Z,467.55
2019-01-04T02:27:13.528Z,470.50
2019-01-04T02:28:13.487Z,469.71
2019-01-04T02:29:13.458Z,472.86
2019-01-04T02:30:13.476Z,468.15
2019-01-04T02:31:13.458Z,470.00
2019-01-04T02:32:13.485Z,470.07
2019-01-04T02:33:13.483Z,470.11
2019-01-04T02:34:13.573Z,473.34
2019-01-04T02:35:13.407Z,474.46
2019-01-04T02:36:13.472Z,467.13
2019-01-04T02:37:13.409Z,467.14
2019-01-04T02:38:13.402Z,465.83
2019-01-04T02:39:13.439Z,472.11
2019-01-04T02:40:13.405Z,468.09
2019-01-04T02:41:13.366Z,475.62
2019-01-04T02:42:13.362Z,469.76
2019-01-04T02:43:13.382Z,469.35
2019-01-04T02:44:13.325Z,471.03
2019-01-04T02:45:13.317Z,473.51
2019-01-04T02:46:13.321Z,472.77
2019-01-04T02:47:13.346Z,466.21
2019-01-04T02:48:13.357Z,470.80
2019-01-04T02:49:13.331Z,471.13
2019-01-04T02:50:13.284Z,470.35
2019-01-04T02:51:13.290Z,467.73
2019-01-04T02:52:13.225Z,472.31
2019-01-04T02:53:13.224Z,471.67
2019-01-04T02:54:13.259Z,470.67
2019-01-04T02:55:13.262Z,469.66
2019-01-04T02:56:13.210Z,469.59
2019-01-04T02:57:13.198Z,467.08
2019-01-04T02:58:13.216Z,467.31
2019-01-04T02:59:13.161Z,465.95
2019-01-04T03:00:13.182Z,471.95
2019-01-04T03:01:13.180Z,466.99
2019-01-04T03:02:13.151Z,470.16
2019-01-04T03:03:13.169Z,470.94
2019-01-04T03:04:13.113Z,483.64
2019-01-04T03:05:13.139Z,466.98
2019-01-04T03:06:13.141Z,476.86
2019-01-04T03:07:13.118Z,472.30
2019-01-04T03:08:13.070Z,465.01
2019-01-04T03:09:13.072Z,468.28
2019-01-04T03:10:13.065Z,471.80
2019-01-04T03:11:13.037Z,469.32
2019-01-04T03:12:13.091Z,473.71
2019-01-04T03:13:13.038Z,470.91
2019-01-04T03:14:13.042Z,470.50
2019-01-04T03:15:13.039Z,467.93
2019-01-04T03:16:13.010Z,470.54
2019-01-04T03:17:13.070Z,464.28
2019-01-04T03:18:12.992Z,468.85
2019-01-04T03:19:12.975Z,467.89
2019-01-04T03:20:12.988Z,470.12
2019-01-04T03:21:13.040Z,466.54
2019-01-04T03:22:12.972Z,469.81
2019-01-04T03:23:12.939Z,468.85
2019-01-04T03:24:12.932Z,466.97
2019-01-04T03:25:13.003Z,469.23
2019-01-04T03:26:12.891Z,472.77
2019-01-04T03:27:12.918Z,466.84
2019-01-04T03:28:12.933Z,470.74
2019-01-04T03:29:12.948Z,472.35
2019-01-04T03:30:12.931Z,465.16
2019-01-04T03:31:12.857Z,469.90
2019-01-04T03:32:12.869Z,465.04
2019-01-04T03:33:12.840Z,462.90
2019-01-04T03:34:12.853Z,469.86
2019-01-04T03:35:12.813Z,466.13
2019-01-04T03:36:12.789Z,466.01
2019-01-04T03:37:12.807Z,465.45
2019-01-04T03:38:12.772Z,466.00
2019-01-04T03:39:12.813Z,465.99
2019-01-04T03:40:12.793Z,467.85
2019-01-04T03:41:12.765Z,464.55
2019-01-04T03:42:12.740Z,468.37
2019-01-04T03:43:12.721Z,468.55
2019-01-04T03:44:12.756Z,463.43
2019-01-04T03:45:12.710Z,467.41
2019-01-04T03:46:12.696Z,464.70
2019-01-04T03:47:12.678Z,468.62
2019-01-04T03:48:12.708Z,470.49
2019-01-04T03:49:12.686Z,468.59
2019-01-04T03:50:12.696Z,469.57
2019-01-04T03:51:12.647Z,467.48
2019-01-04T03:52:12.644Z,472.64
2019-01-04T03:53:12.646Z,470.50
2019-01-04T03:54:12.615Z,466.21
2019-01-04T03:55:12.620Z,467.79
2019-01-04T03:56:12.615Z,467.91
2019-01-04T03:57:12.636Z,470.13
2019-01-04T03:58:12.597Z,470.88
2019-01-04T03:59:12.632Z,470.62
2019-01-04T04:00:12.655Z,473.06
2019-01-04T04:01:12.571Z,467.36
2019-01-04T04:02:12.577Z,471.68
2019-01-04T04:03:12.599Z,474.60
2019-01-04T04:04:12.500Z,472.21
2019-01-04T04:05:12.496Z,466.96
2019-01-04T04:06:12.566Z,470.34
2019-01-04T04:07:12.508Z,471.47
2019-01-04T04:08:12.451Z,468.97
2019-01-04T04:09:12.446Z,469.80
2019-01-04T04:10:12.442Z,466.78
2019-01-04T04:11:12.464Z,472.56
2019-01-04T04:12:12.543Z,463.88
2019-01-04T04:13:12.462Z,468.21
2019-01-04T04:14:12.455Z,468.52
2019-01-04T04:15:12.385Z,469.09
2019-01-04T04:16:12.509Z,467.69
2019-01-04T04:17:12.438Z,467.59
2019-01-04T04:18:12.430Z,466.79
2019-01-04T04:19:12.409Z,469.53
2019-01-04T04:20:12.339Z,469.81
2019-01-04T04:21:12.383Z,467.58
2019-01-04T04:22:12.365Z,467.37
2019-01-04T04:23:12.330Z,468.17
2019-01-04T04:24:12.339Z,471.71
2019-01-04T04:25:12.328Z,467.05
2019-01-04T04:26:12.319Z,472.53
2019-01-04T04:27:12.300Z,467.83
2019-01-04T04:28:12.315Z,463.80
2019-01-04T04:29:12.269Z,469.29
2019-01-04T04:30:12.252Z,465.39
2019-01-04T04:31:12.243Z,473.93
2019-01-04T04:32:12.233Z,469.74
2019-01-04T04:33:12.211Z,467.47
2019-01-04T04:34:12.271Z,470.27
2019-01-04T04:35:12.200Z,469.92
2019-01-04T04:36:12.173Z,466.27
2019-01-04T04:37:12.174Z,468.47
2019-01-04T04:38:12.211Z,466.67
2019-01-04T04:39:12.170Z,467.84
2019-01-04T04:40:12.159Z,468.50
2019-01-04T04:41:12.135Z,469.29
2019-01-04T04:42:12.121Z,471.68
2019-01-04T04:43:12.135Z,466.85
2019-01-04T04:44:12.135Z,475.65
2019-01-04T04:45:12.115Z,468.76
2019-01-04T04:46:12.079Z,470.35
2019-01-04T04:47:12.097Z,466.86
2019-01-04T04:48:12.091Z,468.67
2019-01-04T04:49:12.047Z,469.96
2019-01-04T04:50:12.083Z,464.06
2019-01-04T04:51:12.031Z,464.43
2019-01-04T04:52:12.056Z,466.58
2019-01-04T04:53:12.010Z,469.84
2019-01-04T04:54:12.017Z,464.01
2019-01-04T04:55:11.992Z,469.29
2019-01-04T04:56:12.042Z,467.32
2019-01-04T04:57:12.007Z,468.21
2019-01-04T04:58:11.968Z,466.79
2019-01-04T04:59:12.030Z,463.85
2019-01-04T05:00:11.955Z,463.29
2019-01-04T05:01:11.920Z,468.64
2019-01-04T05:02:11.975Z,465.40
2019-01-04T05:03:11.909Z,465.16
2019-01-04T05:04:11.901Z,465.74
2019-01-04T05:05:11.892Z,466.27
2019-01-04T05:06:11.908Z,469.37
2019-01-04T05:07:11.956Z,468.05
2019-01-04T05:08:12.156Z,472.13
2019-01-04T05:09:11.855Z,463.41
2019-01-04T05:10:11.894Z,466.50
2019-01-04T05:11:11.824Z,469.52
2019-01-04T05:12:11.819Z,468.44
2019-01-04T05:13:11.827Z,469.73
2019-01-04T05:14:11.807Z,465.85
2019-01-04T05:15:11.802Z,466.52
2019-01-04T05:16:11.773Z,473.34
2019-01-04T05:17:11.776Z,468.96
2019-01-04T05:18:11.766Z,470.84
2019-01-04T05:19:11.730Z,466.59
2019-01-04T05:20:11.735Z,466.70
2019-01-04T05:21:11.758Z,470.15
2019-01-04T05:22:11.775Z,470.11
2019-01-04T05:23:11.802Z,468.15
2019-01-04T05:24:11.690Z,470.10
2019-01-04T05:25:11.688Z,468.30
2019-01-04T05:26:11.743Z,473.16
2019-01-04T05:27:11.694Z,467.76
2019-01-04T05:28:11.670Z,468.36
2019-01-04T05:29:11.668Z,472.94
2019-01-04T05:30:11.668Z,470.60
2019-01-04T05:31:11.631Z,467.09
2019-01-04T05:32:11.693Z,470.95
2019-01-04T05:33:11.617Z,468.10
2019-01-04T05:34:11.597Z,469.42
2019-01-04T05:35:11.604Z,469.20
2019-01-04T05:36:11.590Z,469.47
2019-01-04T05:37:11.581Z,466.04
2019-01-04T05:38:11.652Z,466.60
2019-01-04T05:39:11.523Z,472.94
2019-01-04T05:40:11.528Z,466.45
2019-01-04T05:41:11.495Z,473.49
2019-01-04T05:42:11.540Z,467.34
2019-01-04T05:43:11.585Z,465.73
2019-01-04T05:44:11.511Z,469.58
2019-01-04T05:45:11.579Z,468.37
2019-01-04T05:46:11.564Z,471.58
2019-01-04T05:47:12.327Z,467.64
2019-01-04T05:48:11.460Z,467.39
2019-01-04T05:49:11.429Z,470.84
2019-01-04T05:50:11.453Z,466.21
2019-01-04T05:51:11.447Z,468.03
2019-01-04T05:52:11.391Z,471.20
2019-01-04T05:53:11.402Z,471.56
2019-01-04T05:54:11.420Z,469.99
2019-01-04T05:55:11.396Z,468.89
2019-01-04T05:56:11.413Z,468.94
2019-01-04T05:57:11.346Z,470.03
2019-01-04T05:58:11.407Z,469.23
2019-01-04T05:59:11.337Z,472.14
2019-01-04T06:00:11.345Z,473.40
2019-01-04T06:01:11.392Z,469.78
2019-01-04T06:02:11.309Z,468.69
2019-01-04T06:03:11.344Z,469.91
2019-01-04T06:04:11.294Z,471.37
2019-01-04T06:05:11.284Z,470.87
2019-01-04T06:06:11.266Z,471.52
2019-01-04T06:07:11.253Z,471.85
2019-01-04T06:08:11.302Z,467.01
2019-01-04T06:09:11.271Z,468.67
2019-01-04T06:10:11.291Z,466.66
2019-01-04T06:11:11.235Z,470.55
2019-01-04T06:12:11.239Z,472.87
2019-01-04T06:13:11.264Z,472.22
2019-01-04T06:14:11.300Z,473.05
2019-01-04T06:15:11.426Z,475.08
2019-01-04T06:16:11.168Z,470.94
2019-01-04T06:17:11.209Z,470.13
2019-01-04T06:18:11.161Z,473.34
2019-01-04T06:19:11.231Z,482.16
2019-01-04T06:20:11.186Z,471.58
2019-01-04T06:21:11.279Z,473.76
2019-01-04T06:22:11.106Z,471.76
2019-01-04T06:23:11.164Z,470.26
2019-01-04T06:24:11.085Z,472.13
2019-01-04T06:25:11.082Z,474.13
2019-01-04T06:26:11.112Z,474.92
2019-01-04T06:27:11.094Z,471.87
2019-01-04T06:28:11.107Z,472.90
2019-01-04T06:29:11.021Z,474.08
2019-01-04T06:30:11.011Z,470.84
2019-01-04T06:31:11.013Z,473.12
2019-01-04T06:32:11.001Z,472.10
2019-01-04T06:33:10.981Z,477.88
2019-01-04T06:34:10.988Z,471.40
2019-01-04T06:35:10.996Z,472.67
2019-01-04T06:36:10.962Z,474.36
2019-01-04T06:37:11.010Z,475.41
2019-01-04T06:38:11.228Z,471.53
2019-01-04T06:39:11.088Z,474.16
2019-01-04T06:40:10.923Z,473.12
2019-01-04T06:41:10.929Z,476.57
2019-01-04T06:42:10.936Z,474.29
2019-01-04T06:43:10.871Z,473.23
2019-01-04T06:44:10.877Z,476.55
2019-01-04T06:45:10.854Z,475.59
2019-01-04T06:46:10.846Z,474.50
2019-01-04T06:47:10.887Z,475.74
2019-01-04T06:48:11.122Z,477.30
2019-01-04T06:49:10.846Z,474.94
2019-01-04T06:50:10.829Z,477.97
2019-01-04T06:51:10.801Z,472.10
2019-01-04T06:52:10.804Z,471.55
2019-01-04T06:53:10.773Z,473.24
2019-01-04T06:54:10.775Z,473.87
2019-01-04T06:55:10.910Z,475.85
2019-01-04T06:56:10.739Z,474.92
2019-01-04T06:57:10.717Z,475.40
2019-01-04T06:58:10.947Z,473.99
2019-01-04T06:59:10.894Z,479.45
2019-01-04T07:00:11.826Z,472.02
2019-01-04T07:01:10.738Z,475.59
2019-01-04T07:02:10.676Z,473.10
2019-01-04T07:03:10.681Z,475.08
2019-01-04T07:04:10.714Z,474.16
2019-01-04T07:05:10.675Z,470.42
2019-01-04T07:06:10.674Z,473.38
2019-01-04T07:07:10.711Z,472.17
2019-01-04T07:08:10.674Z,476.17
2019-01-04T07:09:10.776Z,473.79
2019-01-04T07:10:10.676Z,472.43
2019-01-04T07:11:10.593Z,475.72
2019-01-04T07:12:10.614Z,478.10
2019-01-04T07:13:10.583Z,475.88
2019-01-04T07:14:10.647Z,476.09
2019-01-04T07:15:10.540Z,476.93
2019-01-04T07:16:10.539Z,475.19
2019-01-04T07:17:11.347Z,472.82
2019-01-04T07:18:10.533Z,480.00
2019-01-04T07:19:10.513Z,474.14
2019-01-04T07:20:10.512Z,472.68
2019-01-04T07:21:10.526Z,472.35
2019-01-04T07:22:10.473Z,475.11
2019-01-04T07:23:10.490Z,472.12
2019-01-04T07:24:10.528Z,474.15
2019-01-04T07:25:10.513Z,479.17
2019-01-04T07:26:10.505Z,476.81
2019-01-04T07:27:10.495Z,475.06
2019-01-04T07:28:10.413Z,475.98
2019-01-04T07:29:10.394Z,477.17
2019-01-04T07:30:10.396Z,471.29
2019-01-04T07:31:10.419Z,476.93
2019-01-04T07:32:10.396Z,478.71
2019-01-04T07:33:10.375Z,473.47
2019-01-04T07:34:10.342Z,470.61
2019-01-04T07:35:10.350Z,474.87
2019-01-04T07:36:10.338Z,475.89
2019-01-04T07:37:10.387Z,474.51
2019-01-04T07:38:10.329Z,478.09
2019-01-04T07:39:10.292Z,473.07
2019-01-04T07:40:10.266Z,472.27
2019-01-04T07:41:10.290Z,472.11
2019-01-04T07:42:10.265Z,471.23
2019-01-04T07:43:16.295Z,477.80
2019-01-04T07:44:11.265Z,474.28
2019-01-04T07:45:10.207Z,472.70
2019-01-04T07:46:10.223Z,478.05
2019-01-04T07:47:10.231Z,478.02
2019-01-04T07:48:10.255Z,476.81
2019-01-04T07:49:10.199Z,475.47
2019-01-04T07:50:10.254Z,481.29
2019-01-04T07:51:10.170Z,479.66
2019-01-04T07:52:10.133Z,473.89
2019-01-04T07:53:10.160Z,471.68
2019-01-04T07:54:10.147Z,478.98
2019-01-04T07:55:10.150Z,479.26
2019-01-04T07:56:10.123Z,475.31
2019-01-04T07:57:10.153Z,476.51
2019-01-04T07:58:10.156Z,473.61
2019-01-04T07:59:10.094Z,475.34
2019-01-04T08:00:10.065Z,481.24
2019-01-04T08:01:10.037Z,480.44
2019-01-04T08:02:10.050Z,483.03
2019-01-04T08:03:10.065Z,478.55
2019-01-04T08:04:10.042Z,480.90
2019-01-04T08:05:10.038Z,475.48
2019-01-04T08:06:10.025Z,472.97
2019-01-04T08:07:10.100Z,473.38
2019-01-04T08:08:10.001Z,475.24
2019-01-04T08:09:09.977Z,476.29
2019-01-04T08:10:10.037Z,476.35
2019-01-04T08:11:10.140Z,479.99
2019-01-04T08:12:09.959Z,475.98
2019-01-04T08:13:20.476Z,476.60
2019-01-04T08:14:10.005Z,475.59
2019-01-04T08:15:10.759Z,482.84
2019-01-04T08:16:09.895Z,476.60
2019-01-04T08:17:09.918Z,482.63
2019-01-04T08:18:09.932Z,474.69
2019-01-04T08:19:09.888Z,480.67
2019-01-04T08:20:09.873Z,474.18
2019-01-04T08:21:09.878Z,475.89
2019-01-04T08:22:09.862Z,477.94
2019-01-04T08:23:09.876Z,476.88
2019-01-04T08:24:09.825Z,482.74
2019-01-04T08:25:09.831Z,471.70
2019-01-04T08:26:09.816Z,480.48
2019-01-04T08:27:09.800Z,479.76
2019-01-04T08:28:09.779Z,480.71
2019-01-04T08:29:10.793Z,477.55
2019-01-04T08:30:09.750Z,482.79
2019-01-04T08:31:09.734Z,474.30
2019-01-04T08:32:09.732Z,474.07
2019-01-04T08:33:09.793Z,474.21
2019-01-04T08:34:10.123Z,479.27
2019-01-04T08:35:09.960Z,474.50
2019-01-04T08:36:09.729Z,474.89
2019-01-04T08:37:10.192Z,475.35
2019-01-04T08:38:09.884Z,476.68
2019-01-04T08:39:09.977Z,479.92
2019-01-04T08:40:09.804Z,475.66
2019-01-04T08:41:09.765Z,475.77
2019-01-04T08:42:09.654Z,480.81
2019-01-04T08:43:09.631Z,480.60
2019-01-04T08:44:09.886Z,475.13
2019-01-04T08:45:09.651Z,479.03
2019-01-04T08:46:09.616Z,474.92
2019-01-04T08:47:09.619Z,475.04
2019-01-04T08:48:09.596Z,479.35
2019-01-04T08:49:09.682Z,477.27
2019-01-04T08:50:09.562Z,475.93
2019-01-04T08:51:09.613Z,479.65
2019-01-04T08:52:09.523Z,474.78
2019-01-04T08:53:09.518Z,475.72
2019-01-04T08:54:09.501Z,472.99
2019-01-04T08:55:09.529Z,477.69
2019-01-04T08:56:09.525Z,478.14
2019-01-04T08:57:09.510Z,484.23
2019-01-04T08:58:09.461Z,481.06
2019-01-04T08:59:09.449Z,476.20
2019-01-04T09:00:09.474Z,473.21
2019-01-04T09:01:09.438Z,471.47
2019-01-04T09:02:09.426Z,476.69
2019-01-04T09:03:09.452Z,475.54
2019-01-04T09:04:09.388Z,475.68
2019-01-04T09:05:09.391Z,475.50
2019-01-04T09:06:09.373Z,483.30
2019-01-04T09:07:09.398Z,474.25
2019-01-04T09:08:09.371Z,474.55
2019-01-04T09:09:09.396Z,476.42
2019-01-04T09:10:09.390Z,477.66
2019-01-04T09:11:09.354Z,471.96
2019-01-04T09:12:09.316Z,473.61
2019-01-04T09:13:09.342Z,472.79
2019-01-04T09:14:09.356Z,474.69
2019-01-04T09:15:09.283Z,479.74
2019-01-04T09:16:09.326Z,480.29
2019-01-04T09:17:09.402Z,474.43
2019-01-04T09:18:09.253Z,477.75
2019-01-04T09:19:09.281Z,478.21
2019-01-04T09:20:09.300Z,476.70
2019-01-04T09:21:09.247Z,480.88
2019-01-04T09:22:09.232Z,477.87
2019-01-04T09:23:09.259Z,479.86
2019-01-04T09:24:09.310Z,480.48
2019-01-04T09:25:09.227Z,472.53
2019-01-04T09:26:09.206Z,478.69
2019-01-04T09:27:09.870Z,480.71
2019-01-04T09:28:09.149Z,477.10
2019-01-04T09:29:09.167Z,481.52
2019-01-04T09:30:09.343Z,483.14
2019-01-04T09:31:09.153Z,481.61
2019-01-04T09:32:09.189Z,479.94
2019-01-04T09:33:09.910Z,479.91
2019-01-04T09:34:09.133Z,477.17
2019-01-04T09:35:09.156Z,476.05
2019-01-04T09:36:09.126Z,476.72
2019-01-04T09:37:09.116Z,477.73
2019-01-04T09:38:09.230Z,479.96
2019-01-04T09:39:09.302Z,477.78
2019-01-04T09:40:09.232Z,480.81
2019-01-04T09:41:09.326Z,479.47
2019-01-04T09:42:09.394Z,484.05
2019-01-04T09:43:09.052Z,483.45
2019-01-04T09:44:09.026Z,480.39
2019-01-04T09:45:09.029Z,478.34
2019-01-04T09:46:09.039Z,474.74
2019-01-04T09:47:08.979Z,477.13
2019-01-04T09:48:09.001Z,476.64
2019-01-04T09:49:08.950Z,483.67
2019-01-04T09:50:09.894Z,480.55
2019-01-04T09:51:09.044Z,480.01
2019-01-04T09:52:08.963Z,482.02
2019-01-04T09:53:08.970Z,480.64
2019-01-04T09:54:09.091Z,476.21
2019-01-04T09:55:08.922Z,487.52
2019-01-04T09:56:08.885Z,482.28
2019-01-04T09:57:08.866Z,481.06
2019-01-04T09:58:08.915Z,479.68
2019-01-04T09:59:08.847Z,478.17
2019-01-04T10:00:09.098Z,478.42
2019-01-04T10:01:08.901Z,479.59
2019-01-04T10:02:08.925Z,480.11
2019-01-04T10:03:09.349Z,486.18
2019-01-04T10:04:08.786Z,481.30
2019-01-04T10:05:08.798Z,478.13
2019-01-04T10:06:08.798Z,478.80
2019-01-04T10:07:08.881Z,478.72
2019-01-04T10:08:08.971Z,474.69
2019-01-04T10:09:08.769Z,479.27
2019-01-04T10:10:08.779Z,477.97
2019-01-04T10:11:08.716Z,481.10
2019-01-04T10:12:08.703Z,488.04
2019-01-04T10:13:08.918Z,474.13
2019-01-04T10:14:08.773Z,476.92
2019-01-04T10:15:08.675Z,482.14
2019-01-04T10:16:09.251Z,481.41
2019-01-04T10:17:08.731Z,484.62
2019-01-04T10:18:08.666Z,476.34
2019-01-04T10:19:08.814Z,484.63
2019-01-04T10:20:09.966Z,479.61
2019-01-04T10:21:08.719Z,479.80
2019-01-04T10:22:08.655Z,477.30
2019-01-04T10:23:08.867Z,488.61
2019-01-04T10:24:08.925Z,485.51
2019-01-04T10:25:08.655Z,478.22
2019-01-04T10:26:08.573Z,479.93
2019-01-04T10:27:08.558Z,479.76
2019-01-04T10:28:09.395Z,477.96
2019-01-04T10:29:09.396Z,479.94
2019-01-04T10:30:08.516Z,479.29
2019-01-04T10:31:08.607Z,480.46
2019-01-04T10:32:08.587Z,478.42
2019-01-04T10:33:08.533Z,485.97
2019-01-04T10:34:08.504Z,483.76
2019-01-04T10:35:10.700Z,476.34
2019-01-04T10:36:08.603Z,485.99
2019-01-04T10:37:08.824Z,477.16
2019-01-04T10:38:08.714Z,475.43
2019-01-04T10:39:08.514Z,476.40
2019-01-04T10:40:11.242Z,485.00
2019-01-04T10:41:10.291Z,482.54
2019-01-04T10:42:08.814Z,485.79
2019-01-04T10:43:08.647Z,485.34
2019-01-04T10:44:09.703Z,481.93
2019-01-04T10:45:09.401Z,476.53
2019-01-04T10:46:08.982Z,476.99
2019-01-04T10:47:08.443Z,483.64
2019-01-04T10:48:08.374Z,483.84
2019-01-04T10:49:08.481Z,478.86
2019-01-04T10:50:08.316Z,484.96
2019-01-04T10:51:08.615Z,485.62
2019-01-04T10:52:08.497Z,478.62
2019-01-04T10:53:08.326Z,476.95
2019-01-04T10:54:08.273Z,493.54
2019-01-04T10:55:08.281Z,476.68
2019-01-04T10:56:08.276Z,479.60
2019-01-04T10:57:08.240Z,482.51
2019-01-04T10:58:08.432Z,477.43
2019-01-04T10:59:08.236Z,477.87
2019-01-04T11:00:17.516Z,475.87
2019-01-04T11:01:17.525Z,478.32
2019-01-04T11:02:17.608Z,487.11
2019-01-04T11:04:36.942Z,494.17
2019-01-04T11:06:48.937Z,508.79
2019-01-04T11:07:48.053Z,483.77
2019-01-04T11:08:48.380Z,476.46
2019-01-04T11:09:49.471Z,476.02
2019-01-04T11:10:47.724Z,483.81
2019-01-04T11:11:47.548Z,485.25
2019-01-04T11:12:47.552Z,479.57
2019-01-04T11:13:47.522Z,474.67
2019-01-04T11:14:47.508Z,479.53
2019-01-04T11:15:47.493Z,476.70
2019-01-04T11:16:48.293Z,488.33
2019-01-04T11:17:48.294Z,479.30
2019-01-04T11:18:47.436Z,482.10
2019-01-04T11:19:47.525Z,486.18
2019-01-04T11:20:48.382Z,485.05
2019-01-04T11:23:04.116Z,518.59
2019-01-04T11:24:04.127Z,480.41
2019-01-04T11:25:04.074Z,479.81
2019-01-04T11:26:04.070Z,480.27
2019-01-04T11:27:04.789Z,478.04
2019-01-04T11:28:04.756Z,478.29
2019-01-04T11:29:04.002Z,479.41
2019-01-04T11:30:03.981Z,472.73
2019-01-04T11:31:03.967Z,485.61
2019-01-04T11:32:04.748Z,480.79
2019-01-04T11:33:03.949Z,478.99
2019-01-04T11:34:04.767Z,482.92
2019-01-04T11:35:04.070Z,473.92
2019-01-04T11:36:04.786Z,483.06
2019-01-04T11:37:03.874Z,486.02
2019-01-04T11:38:03.845Z,480.92
2019-01-04T11:39:03.911Z,482.21
2019-01-04T11:40:03.880Z,481.90
2019-01-04T11:41:03.860Z,482.84
2019-01-04T11:42:05.248Z,482.05
2019-01-04T11:43:04.747Z,486.62
2019-01-04T11:44:04.297Z,478.11
2019-01-04T11:45:03.824Z,485.00
2019-01-04T11:46:03.893Z,479.57
2019-01-04T11:47:03.807Z,478.51
2019-01-04T11:48:03.891Z,481.18
2019-01-04T11:49:06.360Z,480.22
2019-01-04T11:50:04.747Z,480.35
2019-01-04T11:51:04.026Z,484.82
2019-01-04T11:52:03.716Z,479.69
2019-01-04T11:53:03.770Z,480.88
2019-01-04T11:54:03.763Z,482.78
2019-01-04T11:55:03.801Z,481.33
2019-01-04T11:56:03.718Z,489.18
2019-01-04T11:57:03.731Z,482.49
2019-01-04T11:58:03.700Z,486.90
2019-01-04T11:59:03.820Z,481.10
2019-01-04T12:00:03.638Z,486.12
2019-01-04T12:01:03.647Z,475.13
2019-01-04T12:02:03.632Z,480.61
2019-01-04T12:03:03.778Z,482.27
2019-01-04T12:04:03.623Z,479.53
2019-01-04T12:05:04.373Z,484.89
2019-01-04T12:06:03.802Z,480.63
2019-01-04T12:07:03.575Z,480.63
2019-01-04T12:08:03.579Z,482.46
2019-01-04T12:09:03.572Z,477.24
2019-01-04T12:10:03.779Z,487.97
2019-01-04T12:11:03.552Z,484.12
2019-01-04T12:12:03.538Z,476.53
2019-01-04T12:13:03.537Z,480.65
2019-01-04T12:14:03.502Z,481.64
2019-01-04T12:15:04.531Z,484.33
2019-01-04T12:16:03.667Z,483.26
2019-01-04T12:17:03.452Z,482.89
2019-01-04T12:18:03.477Z,483.84
2019-01-04T12:19:03.412Z,484.12
2019-01-04T12:20:03.459Z,476.69
2019-01-04T12:21:03.465Z,482.95
2019-01-04T12:22:04.307Z,485.08
2019-01-04T12:23:04.293Z,478.44
2019-01-04T12:24:03.403Z,476.53
2019-01-04T12:25:03.436Z,478.73
2019-01-04T12:26:03.382Z,483.24
2019-01-04T12:27:03.426Z,488.79
2019-01-04T12:28:04.615Z,491.41
2019-01-04T12:29:03.319Z,477.59
2019-01-04T12:30:04.848Z,480.76
2019-01-04T12:31:03.312Z,484.46
2019-01-04T12:32:03.336Z,477.93